Happy Valentine's Day! 

Flight Track Log - Related Links

Times and Time Zones

All times are in EDT time to prevent confusion due to time zone crossing. See the SWA714 flight status page for this flight to view local times or setup timezone preferences in your user account.


Time Position Orientation Groundspeed Altitude Reporting Facility
EDT Latitude Longitude Course Direction KTS MPH feet Rate Location/Type
Wed 04:14:38 PM 29.5461 -98.4900 307° West 153 176 1,700  Level Houston Center
Wed 04:15:15 PM 29.5633 -98.5167 307° West 164 189 2,800 2,207 Climbing Houston Center
Wed 04:16:05 PM 29.5917 -98.5639 305° West 207 238 4,900 2,411 Climbing Houston Center
Wed 04:17:07 PM 29.6647 -98.5719 355° North 275 316 7,300 2,592 Climbing Houston Center
Wed 04:18:10 PM 29.7561 -98.5544 North 308 354 10,300 2,256 Climbing Houston Center
Wed 04:19:12 PM 29.8586 -98.5353 North 383 441 12,000 1,984 Climbing Houston Center
Wed 04:20:14 PM 29.9689 -98.5144 North 402 463 14,400 2,516 Climbing Houston Center
Wed 04:21:16 PM 30.0956 -98.4869 11° North 426 490 17,200 2,516 Climbing Houston Center
Wed 04:22:18 PM 30.2172 -98.4628 10° North 478 550 19,600 2,177 Climbing Houston Center
Wed 04:23:20 PM 30.3481 -98.4356 10° North 452 520 21,700 1,839 Climbing Houston Center
Wed 04:24:22 PM 30.4764 -98.4075 11° North 460 529 23,400 1,742 Climbing Houston Center
Wed 04:25:24 PM 30.6122 -98.3789 10° North 481 554 25,300 1,536 Climbing Houston Center
Wed 04:26:27 PM 30.7469 -98.3500 10° North 485 558 26,600 1,296 Climbing Houston Center
Wed 04:27:29 PM 30.8875 -98.3206 10° North 500 575 28,000 1,161 Climbing Houston Center
Wed 04:28:31 PM 31.0300 -98.2906 10° North 510 587 29,000 488 Climbing Houston Center
Wed 04:29:32 PM 31.1939 -98.2389 15° North 510 587 29,000  Level Fort Worth Center
Wed 04:30:32 PM 31.3092 -98.1647 29° Northeast 521 600 29,000  Level Fort Worth Center
Wed 04:31:32 PM 31.4350 -98.0756 31° Northeast 531 611 29,000 -1,300 Level Fort Worth Center
Wed 04:32:32 PM 31.5647 -97.9886 30° Northeast 531 611 26,400 -2,650 Descending Fort Worth Center
Wed 04:33:32 PM 31.6883 -97.9017 31° Northeast 526 605 23,700 -2,650 Descending Fort Worth Center
Wed 04:34:32 PM 31.8181 -97.8119 30° Northeast 508 585 21,100 -2,550 Descending Fort Worth Center
Wed 04:35:32 PM 31.9311 -97.7342 30° Northeast 483 556 18,600 -2,450 Descending Fort Worth Center
Wed 04:36:32 PM 32.0272 -97.6633 32° Northeast 455 524 16,200 -2,550 Descending Fort Worth Center
Wed 04:37:32 PM 32.1444 -97.5803 31° Northeast 447 514 13,500 -2,000 Descending Fort Worth Center
Wed 04:38:32 PM 32.2364 -97.5164 30° Northeast 429 494 12,200 -1,100 Descending Fort Worth Center
Wed 04:39:32 PM 32.3261 -97.4428 35° Northeast 381 438 11,300 -1,200 Descending Fort Worth Center
Wed 04:40:32 PM 32.3761 -97.3642 53° Northeast 319 367 9,800 -1,466 Descending Fort Worth Center
Wed 04:41:43 PM 32.3761 -97.2536 90° East 302 348 8,100 -1,636 Descending Fort Worth Center
Wed 04:42:44 PM 32.3675 -97.1331 95° East 302 348 6,200 -1,587 Descending Fort Worth Center
Wed 04:43:44 PM 32.3569 -97.0372 97° East 297 342 4,900 -1,100 Descending Fort Worth Center
Wed 04:44:44 PM 32.3775 -96.9508 74° East 276 318 4,000 -450 Descending Fort Worth Center
Wed 04:45:44 PM 32.4022 -96.8672 71° East 270 311 4,000  Level Fort Worth Center
Wed 04:46:44 PM 32.4458 -96.8225 41° Northeast 238 274 4,000  Level Fort Worth Center
Wed 04:47:44 PM 32.4956 -96.7706 41° Northeast 215 247 4,000  Level Fort Worth Center
Wed 04:48:44 PM 32.5350 -96.7283 42° Northeast 210 242 4,000  Level Fort Worth Center
Wed 04:49:44 PM 32.5892 -96.6908 30° Northeast 204 235 4,000 -100 Level Fort Worth Center
Wed 04:50:44 PM 32.6372 -96.6783 12° North 194 223 3,800 -612 Descending Fort Worth Center
Wed 04:51:22 PM 32.6833 -96.6833 355° North 200 230 3,000 -796 Descending Dallas / Fort Worth TRACON
Wed 04:52:22 PM 32.7167 -96.7167 320° Northwest 158 182 2,500 -300 Descending Dallas / Fort Worth TRACON
Wed 04:53:22 PM 32.7500 -96.7500 320° Northwest 144 166 2,400 -100 Descending Dallas / Fort Worth TRACON

Login

Don't have an account? Register now (free) for customized features, flight alerts, and more!